createdAt,value
2023-04-23T00:01:20.417Z,10.40
2023-04-23T00:03:50.168Z,10.40
2023-04-23T00:06:17.837Z,10.30
2023-04-23T00:08:45.042Z,10.30
2023-04-23T00:11:12.341Z,10.40
2023-04-23T00:13:39.402Z,10.30
2023-04-23T00:16:06.995Z,10.20
2023-04-23T00:18:33.826Z,10.20
2023-04-23T00:21:00.694Z,10.10
2023-04-23T00:23:30.661Z,10.20
2023-04-23T00:25:57.375Z,10.20
2023-04-23T00:28:24.106Z,10.20
2023-04-23T00:30:51.116Z,10.20
2023-04-23T00:33:18.027Z,10.20
2023-04-23T00:35:45.001Z,10.20
2023-04-23T00:38:11.790Z,10.00
2023-04-23T00:40:38.700Z,10.00
2023-04-23T00:43:07.513Z,10.10
2023-04-23T00:45:34.698Z,10.10
2023-04-23T00:48:03.872Z,10.10
2023-04-23T00:50:30.707Z,10.10
2023-04-23T00:52:57.465Z,10.20
2023-04-23T00:55:24.276Z,10.10
2023-04-23T00:57:51.509Z,10.10
2023-04-23T01:00:18.688Z,10.10
2023-04-23T01:02:47.905Z,10.10
2023-04-23T01:05:18.015Z,10.10
2023-04-23T01:07:46.955Z,10.10
2023-04-23T01:10:14.228Z,10.10
2023-04-23T01:12:41.068Z,10.10
2023-04-23T01:15:09.133Z,10.00
2023-04-23T01:17:37.043Z,10.10
2023-04-23T01:20:06.275Z,10.10
2023-04-23T01:22:37.441Z,10.10
2023-04-23T01:25:06.282Z,10.10
2023-04-23T01:27:35.965Z,10.10
2023-04-23T01:30:08.433Z,10.10
2023-04-23T01:32:36.087Z,10.10
2023-04-23T01:35:04.816Z,10.00
2023-04-23T01:37:34.633Z,10.00
2023-04-23T01:40:01.602Z,10.10
2023-04-23T01:42:28.417Z,10.10
2023-04-23T01:44:55.155Z,10.10
2023-04-23T01:47:22.205Z,10.10
2023-04-23T01:49:49.732Z,10.10
2023-04-23T01:52:16.791Z,10.20
2023-04-23T01:54:43.732Z,10.10
2023-04-23T01:57:10.955Z,10.10
2023-04-23T01:59:39.199Z,10.20
2023-04-23T02:02:10.545Z,10.10
2023-04-23T02:04:40.664Z,10.10
2023-04-23T02:07:07.702Z,10.10
2023-04-23T02:09:34.557Z,10.10
2023-04-23T02:12:01.748Z,10.00
2023-04-23T02:14:30.347Z,10.00
2023-04-23T02:16:57.734Z,10.00
2023-04-23T02:19:24.503Z,10.00
2023-04-23T02:21:51.280Z,10.10
2023-04-23T02:24:17.989Z,10.10
2023-04-23T02:26:44.795Z,10.00
2023-04-23T02:29:11.624Z,10.00
2023-04-23T02:31:38.410Z,10.00
2023-04-23T02:34:08.399Z,10.00
2023-04-23T02:36:36.533Z,10.00
2023-04-23T02:39:04.809Z,10.00
2023-04-23T02:41:31.617Z,10.00
2023-04-23T02:43:58.769Z,10.00
2023-04-23T02:46:25.621Z,10.00
2023-04-23T02:48:52.380Z,10.00
2023-04-23T02:51:19.193Z,10.00
2023-04-23T02:53:46.233Z,10.00
2023-04-23T02:56:15.373Z,10.00
2023-04-23T02:58:42.295Z,10.00
2023-04-23T03:01:09.216Z,10.00
2023-04-23T03:03:36.229Z,10.00
2023-04-23T03:06:03.820Z,10.10
2023-04-23T03:08:30.741Z,10.00
2023-04-23T03:10:57.468Z,10.00
2023-04-23T03:13:26.186Z,9.90
2023-04-23T03:15:56.922Z,10.00
2023-04-23T03:18:23.745Z,9.90
2023-04-23T03:20:50.581Z,9.90
2023-04-23T03:23:17.644Z,9.90
2023-04-23T03:25:44.442Z,10.00
2023-04-23T03:28:11.269Z,10.00
2023-04-23T03:30:38.521Z,10.00
2023-04-23T03:33:05.314Z,9.90
2023-04-23T03:35:32.123Z,9.90
2023-04-23T03:37:58.958Z,9.80
2023-04-23T03:40:26.267Z,9.80
2023-04-23T03:42:53.072Z,9.90
2023-04-23T03:45:19.959Z,9.90
2023-04-23T03:47:46.758Z,9.80
2023-04-23T03:50:17.752Z,9.90
2023-04-23T03:52:44.637Z,9.80
2023-04-23T03:55:12.255Z,9.80
2023-04-23T03:57:39.212Z,9.80
2023-04-23T04:00:12.986Z,9.80
2023-04-23T04:02:41.083Z,9.80
2023-04-23T04:05:10.743Z,9.90
2023-04-23T04:07:37.736Z,9.80
2023-04-23T04:10:06.695Z,9.80
2023-04-23T04:12:33.623Z,9.80
2023-04-23T04:15:00.551Z,9.80
2023-04-23T04:17:27.566Z,9.70
2023-04-23T04:19:54.614Z,9.80
2023-04-23T04:22:21.704Z,9.70
2023-04-23T04:24:48.728Z,9.70
2023-04-23T04:27:15.874Z,9.70
2023-04-23T04:29:42.762Z,9.70
2023-04-23T04:32:10.300Z,9.70
2023-04-23T04:34:39.184Z,9.70
2023-04-23T04:37:08.775Z,9.70
2023-04-23T04:39:35.651Z,9.70
2023-04-23T04:42:02.969Z,9.70
2023-04-23T04:44:30.613Z,9.70
2023-04-23T04:46:59.518Z,9.70
2023-04-23T04:49:26.534Z,9.70
2023-04-23T04:51:54.220Z,9.70
2023-04-23T04:54:22.153Z,9.70
2023-04-23T04:56:49.050Z,9.60
2023-04-23T04:59:15.951Z,9.60
2023-04-23T05:01:43.837Z,9.60
2023-04-23T05:04:10.866Z,9.70
2023-04-23T05:06:37.858Z,9.70
2023-04-23T05:09:05.053Z,9.60
2023-04-23T05:11:32.186Z,9.70
2023-04-23T05:13:58.950Z,9.70
2023-04-23T05:16:25.746Z,9.70
2023-04-23T05:18:52.590Z,9.70
2023-04-23T05:21:20.413Z,9.70
2023-04-23T05:23:47.269Z,9.70
2023-04-23T05:26:14.056Z,9.70
2023-04-23T05:28:40.859Z,9.70
2023-04-23T05:31:07.695Z,9.70
2023-04-23T05:33:46.328Z,9.70
2023-04-23T05:36:15.712Z,9.70
2023-04-23T05:38:42.430Z,9.70
2023-04-23T05:41:09.150Z,9.70
2023-04-23T05:43:35.994Z,9.70
2023-04-23T05:46:04.741Z,9.70
2023-04-23T05:48:31.579Z,9.70
2023-04-23T05:50:59.139Z,9.70
2023-04-23T05:53:26.828Z,9.70
2023-04-23T05:56:02.718Z,9.80
2023-04-23T05:58:29.914Z,9.80
2023-04-23T06:01:04.513Z,9.80
2023-04-23T06:03:32.753Z,9.80
2023-04-23T06:05:59.783Z,9.90
2023-04-23T06:08:26.676Z,10.00
2023-04-23T06:10:53.573Z,10.00
2023-04-23T06:13:23.228Z,10.00
2023-04-23T06:15:50.049Z,10.00
2023-04-23T06:18:16.793Z,10.00
2023-04-23T06:20:43.720Z,10.10
2023-04-23T06:23:12.683Z,10.10
2023-04-23T06:25:39.413Z,10.10
2023-04-23T06:28:06.456Z,10.10
2023-04-23T06:30:33.285Z,10.10
2023-04-23T06:33:02.338Z,10.20
2023-04-23T06:35:30.533Z,10.20
2023-04-23T06:37:57.272Z,10.30
2023-04-23T06:40:24.010Z,10.40
2023-04-23T06:42:50.910Z,10.40
2023-04-23T06:45:17.757Z,10.40
2023-04-23T06:47:44.892Z,10.40
2023-04-23T06:50:11.756Z,10.40
2023-04-23T06:52:38.540Z,10.50
2023-04-23T06:55:06.286Z,10.50
2023-04-23T06:57:33.827Z,10.60
2023-04-23T07:00:00.555Z,10.70
2023-04-23T07:02:46.803Z,10.70
2023-04-23T07:05:14.003Z,10.70
2023-04-23T07:07:43.491Z,10.70
2023-04-23T07:10:12.427Z,10.80
2023-04-23T07:12:39.973Z,10.80
2023-04-23T07:15:08.592Z,10.90
2023-04-23T07:17:36.407Z,10.90
2023-04-23T07:20:08.503Z,11.00
2023-04-23T07:22:35.472Z,11.10
2023-04-23T07:25:04.287Z,11.10
2023-04-23T07:27:31.133Z,11.30
2023-04-23T07:29:58.816Z,11.30
2023-04-23T07:32:28.019Z,11.30
2023-04-23T07:34:56.248Z,11.40
2023-04-23T07:37:23.121Z,11.50
2023-04-23T07:39:50.154Z,11.50
2023-04-23T07:42:16.921Z,11.70
2023-04-23T07:44:43.714Z,11.70
2023-04-23T07:47:11.329Z,11.70
2023-04-23T07:49:39.064Z,11.70
2023-04-23T07:52:06.147Z,11.80
2023-04-23T07:54:32.900Z,12.20
2023-04-23T07:57:02.143Z,12.40
2023-04-23T07:59:29.926Z,12.40
2023-04-23T08:01:59.079Z,12.30
2023-04-23T08:04:26.147Z,12.30
2023-04-23T08:06:53.152Z,12.40
2023-04-23T08:09:19.974Z,12.40
2023-04-23T08:11:52.980Z,12.60
2023-04-23T08:14:19.727Z,12.70
2023-04-23T08:16:46.435Z,12.90
2023-04-23T08:19:13.158Z,13.20
2023-04-23T08:21:47.093Z,13.40
2023-04-23T08:24:23.325Z,13.80
2023-04-23T08:26:50.076Z,14.10
2023-04-23T08:29:16.831Z,14.30
2023-04-23T08:31:46.952Z,14.50
2023-04-23T08:34:15.347Z,14.70
2023-04-23T08:36:42.109Z,14.90
2023-04-23T08:39:09.433Z,15.10
2023-04-23T08:41:42.948Z,15.20
2023-04-23T08:44:24.209Z,15.40
2023-04-23T08:47:12.392Z,15.60
2023-04-23T08:49:42.576Z,15.80
2023-04-23T08:52:19.053Z,15.70
2023-04-23T08:55:14.719Z,15.70
2023-04-23T08:57:42.325Z,15.70
2023-04-23T09:00:30.355Z,15.90
2023-04-23T09:02:58.455Z,15.90
2023-04-23T09:05:27.152Z,16.20
2023-04-23T09:08:13.915Z,16.20
2023-04-23T09:10:42.634Z,16.30
2023-04-23T09:13:09.625Z,16.20
2023-04-23T09:15:39.533Z,16.20
2023-04-23T09:18:18.557Z,16.50
2023-04-23T09:20:45.904Z,16.40
2023-04-23T09:23:32.702Z,16.40
2023-04-23T09:26:02.060Z,16.30
2023-04-23T09:28:56.300Z,16.10
2023-04-23T09:31:24.475Z,16.20
2023-04-23T09:33:53.702Z,16.40
2023-04-23T09:36:37.720Z,16.30
2023-04-23T09:39:32.540Z,16.50
2023-04-23T09:42:05.362Z,16.40
2023-04-23T09:44:34.017Z,16.40
2023-04-23T09:47:10.228Z,16.60
2023-04-23T09:49:50.822Z,16.60
2023-04-23T09:52:18.658Z,16.60
2023-04-23T09:54:54.062Z,16.50
2023-04-23T09:57:24.986Z,16.70
2023-04-23T09:59:57.430Z,16.70
2023-04-23T10:02:38.267Z,16.80
2023-04-23T10:05:27.217Z,16.90
2023-04-23T10:07:57.646Z,17.00
2023-04-23T10:10:26.037Z,17.00
2023-04-23T10:12:55.784Z,16.90
2023-04-23T10:15:27.161Z,16.90
2023-04-23T10:17:55.867Z,16.90
2023-04-23T10:20:26.512Z,17.10
2023-04-23T10:22:56.677Z,17.40
2023-04-23T10:25:26.104Z,17.20
2023-04-23T10:27:56.301Z,17.10
2023-04-23T10:30:23.484Z,17.20
2023-04-23T10:32:51.291Z,17.20
2023-04-23T10:35:18.370Z,17.20
2023-04-23T10:37:47.996Z,17.20
2023-04-23T10:40:26.923Z,17.30
2023-04-23T10:42:56.053Z,17.20
2023-04-23T10:45:25.146Z,17.20
2023-04-23T10:47:57.414Z,17.30
2023-04-23T10:50:29.812Z,17.30
2023-04-23T10:52:58.806Z,17.50
2023-04-23T10:55:31.480Z,17.30
2023-04-23T10:58:02.901Z,17.40
2023-04-23T11:00:45.402Z,17.50
2023-04-23T11:03:44.598Z,17.50
2023-04-23T11:06:51.006Z,17.40
2023-04-23T11:10:03.693Z,17.30
2023-04-23T11:12:32.567Z,17.40
2023-04-23T11:15:10.936Z,17.50
2023-04-23T11:17:37.619Z,17.60
2023-04-23T11:20:07.346Z,17.60
2023-04-23T11:22:59.088Z,17.60
2023-04-23T11:25:28.276Z,17.60
2023-04-23T11:27:58.706Z,17.60
2023-04-23T11:30:32.138Z,17.70
2023-04-23T11:33:02.422Z,17.70
2023-04-23T11:35:39.508Z,17.80
2023-04-23T11:38:10.087Z,17.80
2023-04-23T11:40:37.327Z,17.80
2023-04-23T11:43:04.301Z,17.90
2023-04-23T11:45:31.649Z,18.10
2023-04-23T11:48:04.012Z,18.20
2023-04-23T11:50:36.227Z,18.20
2023-04-23T11:53:21.589Z,18.00
2023-04-23T11:55:49.564Z,17.90
2023-04-23T11:58:19.437Z,17.80
2023-04-23T12:00:46.467Z,17.70
2023-04-23T12:03:14.417Z,17.80
2023-04-23T12:05:44.843Z,17.70
2023-04-23T12:08:15.027Z,17.60
2023-04-23T12:10:54.323Z,17.70
2023-04-23T12:13:45.319Z,17.70
2023-04-23T12:16:12.192Z,17.60
2023-04-23T12:18:44.085Z,17.60
2023-04-23T12:21:13.471Z,17.60
2023-04-23T12:24:03.750Z,17.60
2023-04-23T12:26:31.302Z,17.70
2023-04-23T12:29:00.098Z,17.90
2023-04-23T12:31:29.775Z,18.00
2023-04-23T12:34:28.729Z,18.10
2023-04-23T12:36:57.535Z,18.40
2023-04-23T12:39:50.648Z,18.40
2023-04-23T12:42:17.547Z,18.20
2023-04-23T12:44:47.805Z,18.20
2023-04-23T12:47:15.311Z,18.10
2023-04-23T12:50:03.829Z,18.20
2023-04-23T12:52:31.127Z,18.30
2023-04-23T12:55:01.178Z,18.30
2023-04-23T12:57:28.023Z,18.30
2023-04-23T12:59:55.135Z,18.20
2023-04-23T13:02:44.253Z,18.10
2023-04-23T13:05:11.183Z,18.00
2023-04-23T13:07:38.118Z,17.90
2023-04-23T13:10:11.581Z,17.80
2023-04-23T13:12:38.947Z,17.90
2023-04-23T13:15:06.941Z,17.90
2023-04-23T13:17:33.838Z,17.90
2023-04-23T13:20:00.608Z,18.00
2023-04-23T13:22:29.137Z,17.90
2023-04-23T13:24:58.373Z,17.90
2023-04-23T13:27:26.897Z,17.90
2023-04-23T13:29:56.161Z,17.80
2023-04-23T13:32:28.281Z,17.90
2023-04-23T13:34:55.654Z,17.90
2023-04-23T13:37:23.866Z,17.80
2023-04-23T13:39:50.748Z,17.90
2023-04-23T13:42:17.504Z,17.90
2023-04-23T13:44:44.182Z,17.70
2023-04-23T13:47:11.164Z,17.70
2023-04-23T13:49:38.197Z,17.60
2023-04-23T13:52:06.947Z,17.50
2023-04-23T13:54:35.490Z,17.40
2023-04-23T13:57:02.970Z,17.50
2023-04-23T13:59:29.872Z,17.60
2023-04-23T14:01:56.625Z,17.60
2023-04-23T14:04:24.231Z,17.60
2023-04-23T14:06:51.154Z,17.70
2023-04-23T14:09:18.880Z,17.80
2023-04-23T14:11:45.963Z,17.80
2023-04-23T14:14:12.733Z,17.80
2023-04-23T14:16:39.484Z,17.70
2023-04-23T14:19:06.669Z,17.60
2023-04-23T14:21:35.693Z,17.50
2023-04-23T14:24:23.925Z,17.60
2023-04-23T14:27:12.535Z,17.50
2023-04-23T14:29:55.334Z,17.60
2023-04-23T14:32:22.319Z,17.50
2023-04-23T14:34:50.733Z,17.50
2023-04-23T14:37:17.695Z,17.50
2023-04-23T14:39:44.706Z,17.50
2023-04-23T14:42:11.782Z,17.50
2023-04-23T14:44:38.533Z,17.40
2023-04-23T14:47:08.068Z,17.40
2023-04-23T14:49:34.829Z,17.40
2023-04-23T14:52:04.102Z,17.40
2023-04-23T14:54:30.870Z,17.50
2023-04-23T14:56:57.578Z,17.40
2023-04-23T14:59:24.314Z,17.40
2023-04-23T15:01:51.173Z,17.00
2023-04-23T15:04:18.849Z,16.60
2023-04-23T15:06:45.756Z,16.30
2023-04-23T15:09:12.460Z,15.70
2023-04-23T15:11:41.616Z,15.10
2023-04-23T15:14:21.210Z,14.90
2023-04-23T15:16:49.715Z,14.70
2023-04-23T15:19:18.853Z,14.70
2023-04-23T15:21:47.483Z,14.70
2023-04-23T15:24:16.093Z,14.70
2023-04-23T15:26:45.816Z,14.70
2023-04-23T15:29:13.595Z,14.60
2023-04-23T15:31:41.987Z,14.60
2023-04-23T15:34:09.705Z,14.50
2023-04-23T15:36:38.163Z,14.40
2023-04-23T15:39:07.117Z,14.40
2023-04-23T15:41:39.418Z,14.50
2023-04-23T15:44:12.695Z,14.40
2023-04-23T15:46:39.848Z,14.50
2023-04-23T15:49:06.666Z,14.50
2023-04-23T15:51:33.495Z,14.60
2023-04-23T15:54:02.002Z,14.60
2023-04-23T15:56:29.005Z,14.80
2023-04-23T15:58:57.398Z,14.70
2023-04-23T16:01:26.947Z,14.60
2023-04-23T16:04:08.672Z,14.60
2023-04-23T16:06:37.498Z,14.60
2023-04-23T16:09:07.213Z,14.60
2023-04-23T16:11:38.695Z,14.50
2023-04-23T16:14:07.056Z,14.60
2023-04-23T16:16:33.981Z,14.60
2023-04-23T16:19:02.539Z,14.70
2023-04-23T16:21:29.607Z,14.80
2023-04-23T16:23:56.867Z,14.80
2023-04-23T16:26:24.400Z,14.90
2023-04-23T16:29:05.421Z,14.80
2023-04-23T16:31:39.158Z,14.80
2023-04-23T16:34:06.135Z,14.90
2023-04-23T16:36:33.028Z,15.00
2023-04-23T16:38:59.864Z,15.00
2023-04-23T16:41:27.472Z,15.10
2023-04-23T16:43:54.215Z,15.00
2023-04-23T16:46:21.351Z,15.00
2023-04-23T16:48:48.150Z,14.90
2023-04-23T16:51:15.048Z,14.90
2023-04-23T16:53:41.778Z,14.90
2023-04-23T16:56:08.780Z,14.90
2023-04-23T16:58:35.983Z,14.90
2023-04-23T17:01:02.759Z,14.90
2023-04-23T17:03:29.674Z,14.80
2023-04-23T17:06:29.636Z,14.90
2023-04-23T17:08:59.340Z,14.90
2023-04-23T17:11:48.074Z,14.80
2023-04-23T17:14:15.271Z,14.80
2023-04-23T17:16:42.080Z,14.70
2023-04-23T17:19:08.832Z,14.60
2023-04-23T17:21:35.961Z,14.70
2023-04-23T17:24:03.223Z,14.80
2023-04-23T17:26:30.021Z,14.70
2023-04-23T17:28:56.765Z,14.70
2023-04-23T17:31:23.627Z,14.60
2023-04-23T17:33:50.887Z,14.60
2023-04-23T17:36:17.691Z,14.60
2023-04-23T17:38:44.542Z,14.60
2023-04-23T17:41:11.413Z,14.60
2023-04-23T17:43:38.224Z,14.50
2023-04-23T17:46:05.126Z,14.50
2023-04-23T17:48:31.969Z,14.60
2023-04-23T17:50:58.736Z,14.50
2023-04-23T17:53:25.581Z,14.40
2023-04-23T17:55:52.917Z,14.40
2023-04-23T17:58:21.323Z,14.40
2023-04-23T18:00:50.343Z,14.50
2023-04-23T18:03:18.485Z,14.40
2023-04-23T18:05:45.537Z,14.40
2023-04-23T18:08:20.794Z,14.30
2023-04-23T18:10:49.106Z,14.30
2023-04-23T18:13:16.191Z,14.30
2023-04-23T18:15:43.407Z,14.30
2023-04-23T18:18:10.464Z,14.20
2023-04-23T18:20:38.305Z,14.20
2023-04-23T18:23:08.335Z,14.10
2023-04-23T18:25:37.289Z,14.20
2023-04-23T18:28:04.394Z,14.10
2023-04-23T18:30:31.339Z,14.10
2023-04-23T18:33:19.360Z,14.10
2023-04-23T18:35:49.578Z,14.00
2023-04-23T18:38:37.458Z,13.90
2023-04-23T18:41:04.943Z,13.90
2023-04-23T18:43:31.913Z,13.90
2023-04-23T18:45:59.138Z,13.90
2023-04-23T18:48:35.291Z,13.80
2023-04-23T18:51:15.092Z,13.80
2023-04-23T18:53:50.233Z,13.60
2023-04-23T18:56:17.037Z,13.70
2023-04-23T18:58:43.875Z,13.80
2023-04-23T19:01:10.682Z,13.80
2023-04-23T19:03:37.841Z,13.80
2023-04-23T19:06:07.470Z,13.90
2023-04-23T19:08:35.498Z,13.70
2023-04-23T19:11:04.175Z,13.80
2023-04-23T19:13:31.181Z,13.80
2023-04-23T19:15:58.023Z,13.70
2023-04-23T19:18:24.943Z,13.70
2023-04-23T19:20:52.656Z,13.60
2023-04-23T19:23:20.291Z,13.60
2023-04-23T19:25:48.031Z,13.60
2023-04-23T19:28:14.717Z,13.50
2023-04-23T19:30:41.765Z,13.50
2023-04-23T19:33:08.802Z,13.40
2023-04-23T19:35:39.357Z,13.60
2023-04-23T19:38:07.121Z,13.60
2023-04-23T19:40:33.917Z,13.60
2023-04-23T19:43:00.765Z,13.50
2023-04-23T19:45:29.955Z,13.50
2023-04-23T19:47:57.174Z,13.60
2023-04-23T19:50:25.514Z,13.50
2023-04-23T19:52:53.227Z,13.50
2023-04-23T19:55:36.915Z,13.40
2023-04-23T19:58:06.760Z,13.50
2023-04-23T20:00:40.037Z,13.50
2023-04-23T20:03:08.042Z,13.30
2023-04-23T20:05:35.175Z,13.20
2023-04-23T20:08:04.676Z,13.40
2023-04-23T20:10:31.762Z,13.40
2023-04-23T20:13:00.067Z,13.40
2023-04-23T20:15:27.062Z,13.40
2023-04-23T20:17:54.665Z,13.50
2023-04-23T20:20:21.770Z,13.50
2023-04-23T20:22:48.854Z,13.40
2023-04-23T20:25:16.984Z,13.40
2023-04-23T20:27:44.846Z,13.40
2023-04-23T20:30:14.147Z,13.50
2023-04-23T20:32:41.488Z,13.40
2023-04-23T20:35:09.431Z,13.50
2023-04-23T20:37:36.350Z,13.60
2023-04-23T20:40:03.614Z,13.50
2023-04-23T20:42:38.986Z,13.50
2023-04-23T20:45:15.772Z,13.40
2023-04-23T20:47:44.384Z,13.40
2023-04-23T20:50:11.324Z,13.40
2023-04-23T20:52:38.220Z,13.40
2023-04-23T20:55:05.459Z,13.40
2023-04-23T20:57:32.575Z,13.50
2023-04-23T20:59:59.297Z,13.50
2023-04-23T21:02:26.210Z,13.50
2023-04-23T21:04:53.012Z,13.50
2023-04-23T21:07:19.972Z,13.40
2023-04-23T21:09:47.009Z,13.30
2023-04-23T21:12:13.960Z,13.40
2023-04-23T21:14:40.803Z,13.40
2023-04-23T21:17:09.277Z,13.30
2023-04-23T21:19:36.158Z,13.40
2023-04-23T21:22:03.495Z,13.30
2023-04-23T21:24:30.382Z,13.30
2023-04-23T21:26:57.259Z,13.30
2023-04-23T21:29:26.231Z,13.40
2023-04-23T21:31:53.344Z,13.40
2023-04-23T21:34:21.276Z,13.30
2023-04-23T21:36:49.302Z,13.40
2023-04-23T21:39:17.150Z,13.40
2023-04-23T21:41:44.805Z,13.30
2023-04-23T21:44:14.038Z,13.30
2023-04-23T21:46:43.045Z,13.10
2023-04-23T21:49:09.881Z,13.00
2023-04-23T21:51:38.398Z,13.00
2023-04-23T21:54:05.780Z,13.00
2023-04-23T21:56:33.696Z,13.00
2023-04-23T21:59:00.592Z,13.10
2023-04-23T22:01:30.286Z,12.90
2023-04-23T22:03:58.115Z,13.00
2023-04-23T22:06:25.317Z,13.00
2023-04-23T22:08:53.219Z,13.00
2023-04-23T22:11:20.565Z,13.00
2023-04-23T22:13:47.289Z,13.00
2023-04-23T22:16:26.982Z,13.10
2023-04-23T22:18:56.273Z,13.10
2023-04-23T22:21:23.028Z,13.00
2023-04-23T22:23:49.805Z,12.80
2023-04-23T22:26:16.644Z,12.90
2023-04-23T22:28:45.503Z,12.90
2023-04-23T22:31:12.392Z,13.00
2023-04-23T22:33:39.366Z,13.10
2023-04-23T22:36:06.727Z,13.00
2023-04-23T22:38:33.542Z,12.90
2023-04-23T22:41:02.794Z,12.90
2023-04-23T22:43:29.593Z,12.90
2023-04-23T22:45:56.477Z,12.70
2023-04-23T22:48:23.946Z,12.70
2023-04-23T22:50:50.956Z,12.50
2023-04-23T22:53:19.252Z,12.30
2023-04-23T22:55:47.263Z,12.00
2023-04-23T22:58:14.154Z,11.80
2023-04-23T23:00:41.018Z,11.70
2023-04-23T23:03:08.609Z,11.50
2023-04-23T23:05:35.696Z,11.40
2023-04-23T23:08:02.671Z,11.20
2023-04-23T23:10:29.702Z,11.00
2023-04-23T23:12:56.468Z,10.90
2023-04-23T23:15:23.256Z,10.80
2023-04-23T23:17:50.036Z,10.60
2023-04-23T23:20:16.918Z,10.60
2023-04-23T23:22:43.859Z,10.50
2023-04-23T23:25:10.917Z,10.50
2023-04-23T23:27:37.766Z,10.50
2023-04-23T23:30:06.034Z,10.60
2023-04-23T23:32:33.472Z,10.50
2023-04-23T23:35:00.369Z,10.40
2023-04-23T23:37:27.469Z,10.40
2023-04-23T23:39:54.222Z,10.40
2023-04-23T23:42:21.287Z,10.40
2023-04-23T23:44:48.059Z,10.30
2023-04-23T23:47:14.870Z,10.30
2023-04-23T23:49:42.077Z,10.20
2023-04-23T23:52:08.995Z,10.20
2023-04-23T23:54:35.976Z,10.20
2023-04-23T23:57:02.864Z,10.20
2023-04-23T23:59:29.619Z,10.10
